Time;durP1;ratioP1;P1;durP2;ratioP2;P2;SDS_P1;SDS_P2;PMS_P1;PMS_P2;Temp;Humidity;BMP_temperature;BMP_pressure;BME280_temperature;BME280_humidity;BME280_pressure;Samples;Min_cycle;Max_cycle;Signal;HPM_P1;HPM_P2
2022/10/11 00:00:36;;;;;;;21.40;5.30;;;9.00;91.50;;;;;;5074179;28;20184;-90
2022/10/11 00:03:02;;;;;;;24.53;4.13;;;9.00;91.50;;;;;;5072866;28;20190;-90
2022/10/11 00:05:28;;;;;;;21.43;5.13;;;9.00;91.50;;;;;;5072861;28;20210;-90
2022/10/11 00:07:54;;;;;;;20.07;5.10;;;8.90;91.50;;;;;;5072724;28;20182;-91
2022/10/11 00:10:20;;;;;;;20.37;4.27;;;8.90;91.50;;;;;;5073537;28;20175;-90
2022/10/11 00:12:46;;;;;;;29.47;4.47;;;8.90;91.50;;;;;;5072602;28;20186;-90
2022/10/11 00:15:18;;;;;;;23.70;3.93;;;8.90;91.50;;;;;;5072614;28;20206;-90
2022/10/11 00:17:44;;;;;;;19.93;4.33;;;8.90;91.50;;;;;;5073381;28;20266;-90
2022/10/11 00:20:10;;;;;;;20.50;5.33;;;8.90;91.60;;;;;;5072550;28;20211;-90
2022/10/11 00:22:36;;;;;;;23.30;4.13;;;9.00;91.60;;;;;;5073331;28;20526;-90
2022/10/11 00:25:04;;;;;;;19.90;4.60;;;9.00;91.60;;;;;;5072336;28;20211;-90
2022/10/11 00:27:30;;;;;;;19.43;4.03;;;9.10;91.70;;;;;;5072380;28;20256;-90
2022/10/11 00:29:55;;;;;;;25.93;5.13;;;9.20;91.70;;;;;;5072663;28;20179;-90
2022/10/11 00:32:21;;;;;;;22.97;5.00;;;9.20;91.60;;;;;;5072330;28;20233;-90
2022/10/11 00:34:46;;;;;;;24.60;5.03;;;9.20;91.60;;;;;;5073435;28;20225;-90
2022/10/11 00:37:12;;;;;;;15.47;4.63;;;9.20;91.60;;;;;;5073749;28;20187;-90
2022/10/11 00:39:38;;;;;;;30.93;8.20;;;9.20;91.60;;;;;;5072213;28;20206;-90
2022/10/11 00:42:03;;;;;;;24.23;4.60;;;9.20;91.70;;;;;;5073452;28;20595;-90
2022/10/11 00:44:31;;;;;;;23.93;4.17;;;9.20;91.70;;;;;;5072006;28;20677;-90
2022/10/11 00:47:03;;;;;;;25.80;3.90;;;9.20;91.70;;;;;;5072722;28;20198;-91
2022/10/11 00:49:39;;;;;;;28.80;4.17;;;9.20;91.70;;;;;;5073425;28;20555;-90
2022/10/11 00:52:36;;;;;;;13.80;3.90;;;9.20;91.70;;;;;;5072183;28;20194;-90
2022/10/11 00:55:06;;;;;;;20.53;4.63;;;9.20;91.80;;;;;;5068945;28;20230;-90
2022/10/11 00:57:35;;;;;;;27.10;5.63;;;9.20;91.80;;;;;;5072071;28;20680;-90
2022/10/11 01:00:04;;;;;;;23.97;4.10;;;9.30;91.80;;;;;;5072349;28;20541;-90
2022/10/11 01:02:30;;;;;;;21.60;4.67;;;9.30;91.80;;;;;;5073231;28;20261;-91
2022/10/11 01:04:55;;;;;;;19.47;4.27;;;9.30;91.70;;;;;;5071717;28;20356;-90
2022/10/11 01:07:21;;;;;;;25.13;4.13;;;9.20;91.60;;;;;;5073148;28;20175;-90
2022/10/11 01:09:47;;;;;;;23.13;4.50;;;9.20;91.50;;;;;;5072841;28;20530;-90
2022/10/11 01:12:20;;;;;;;21.67;4.23;;;9.20;91.50;;;;;;5071846;28;20179;-91
2022/10/11 01:15:12;;;;;;;20.20;5.37;;;9.20;91.60;;;;;;5071797;28;20195;-90
2022/10/11 01:18:02;;;;;;;16.60;4.00;;;9.10;91.60;;;;;;5071948;28;20586;-90
2022/10/11 01:20:50;;;;;;;25.33;7.43;;;9.00;91.60;;;;;;5071892;28;20228;-90
2022/10/11 01:23:33;;;;;;;18.47;4.97;;;9.00;91.90;;;;;;5073026;28;20216;-90
2022/10/11 01:26:32;;;;;;;19.43;4.63;;;8.80;92.10;;;;;;5071765;28;20199;-90
2022/10/11 01:29:37;;;;;;;14.33;4.60;;;8.80;92.20;;;;;;5072052;28;20167;-90
2022/10/11 01:32:16;;;;;;;22.90;4.87;;;8.80;92.30;;;;;;5071903;28;20174;-90
2022/10/11 01:34:54;;;;;;;24.70;5.10;;;8.70;92.40;;;;;;5071687;28;20543;-90
2022/10/11 01:37:30;;;;;;;23.27;5.13;;;8.70;92.40;;;;;;5071903;28;20262;-90
2022/10/11 01:40:12;;;;;;;39.80;5.27;;;8.70;92.40;;;;;;5072573;28;20204;-90
2022/10/11 01:42:39;;;;;;;24.10;5.30;;;8.70;92.50;;;;;;5071702;28;20170;-90
2022/10/11 01:45:12;;;;;;;21.90;4.60;;;8.70;92.60;;;;;;5071401;28;20219;-90
2022/10/11 01:47:37;;;;;;;15.80;5.53;;;8.80;92.60;;;;;;5071593;28;20203;-90
2022/10/11 01:50:04;;;;;;;18.73;5.27;;;8.80;92.70;;;;;;5071577;28;20167;-90
2022/10/11 01:52:34;;;;;;;18.87;4.67;;;8.80;92.80;;;;;;5071759;28;20199;-90
2022/10/11 01:55:24;;;;;;;22.20;5.00;;;8.90;92.80;;;;;;5072191;28;20199;-90
2022/10/11 01:58:16;;;;;;;22.13;5.27;;;9.00;92.80;;;;;;5071396;28;20203;-90
2022/10/11 02:00:53;;;;;;;24.23;4.33;;;9.00;92.90;;;;;;5063487;28;20190;-90
2022/10/11 02:03:45;;;;;;;22.30;3.93;;;9.00;92.70;;;;;;5071381;28;20170;-90
2022/10/11 02:06:27;;;;;;;24.47;4.27;;;9.10;92.50;;;;;;5071239;28;20677;-91
2022/10/11 02:09:32;;;;;;;22.33;5.53;;;9.10;92.40;;;;;;5071402;28;20626;-90
2022/10/11 02:12:04;;;;;;;21.07;4.63;;;9.10;92.30;;;;;;5073300;28;20254;-90
2022/10/11 02:14:35;;;;;;;15.03;3.60;;;9.10;92.20;;;;;;5075247;28;20204;-90
2022/10/11 02:17:07;;;;;;;20.87;4.10;;;9.10;92.20;;;;;;5076199;28;20534;-90
2022/10/11 02:19:55;;;;;;;29.10;4.37;;;9.10;92.10;;;;;;5074982;28;20193;-90
2022/10/11 02:22:27;;;;;;;22.50;4.10;;;9.10;92.00;;;;;;5074819;28;20167;-90
2022/10/11 02:24:56;;;;;;;22.43;4.17;;;9.00;92.00;;;;;;5074657;28;20297;-91
2022/10/11 02:27:26;;;;;;;15.90;4.20;;;9.00;92.00;;;;;;5075501;28;20248;-91
2022/10/11 02:29:54;;;;;;;22.27;4.60;;;9.00;92.00;;;;;;5076247;28;20175;-90
2022/10/11 02:32:22;;;;;;;23.03;4.20;;;8.90;92.00;;;;;;5074607;28;20182;-90
2022/10/11 02:34:54;;;;;;;18.73;4.00;;;8.90;92.00;;;;;;5074498;28;20567;-90
2022/10/11 02:37:34;;;;;;;30.40;4.70;;;8.80;92.00;;;;;;5074592;28;20186;-91
2022/10/11 02:40:13;;;;;;;24.33;4.60;;;8.80;92.00;;;;;;5074474;28;20240;-90
2022/10/11 02:42:43;;;;;;;22.70;4.83;;;8.90;92.00;;;;;;5075297;28;20621;-90
2022/10/11 02:45:23;;;;;;;21.43;3.87;;;8.80;92.00;;;;;;5074342;28;20210;-90
2022/10/11 02:47:49;;;;;;;29.90;4.73;;;8.80;92.00;;;;;;5074370;28;20168;-90
2022/10/11 02:50:15;;;;;;;18.10;3.43;;;8.80;92.00;;;;;;5074263;28;20210;-90
2022/10/11 02:52:40;;;;;;;20.70;4.30;;;8.80;91.90;;;;;;5074693;28;20175;-90
2022/10/11 02:55:07;;;;;;;14.50;3.60;;;8.80;91.90;;;;;;5074163;28;20199;-90
2022/10/11 02:57:33;;;;;;;25.57;4.40;;;8.80;91.80;;;;;;5074118;28;20179;-90
2022/10/11 02:59:58;;;;;;;34.27;5.00;;;8.80;91.80;;;;;;5074069;28;20664;-90
2022/10/11 03:02:24;;;;;;;32.30;5.67;;;8.70;91.80;;;;;;5073973;28;20218;-91
2022/10/11 03:04:49;;;;;;;26.23;4.10;;;8.80;91.90;;;;;;5073867;28;20230;-90
2022/10/11 03:07:15;;;;;;;16.60;3.83;;;8.80;91.90;;;;;;5074266;28;20269;-90
2022/10/11 03:09:41;;;;;;;19.00;4.20;;;8.80;91.90;;;;;;5073990;28;20203;-90
2022/10/11 03:12:06;;;;;;;26.50;4.93;;;8.70;91.80;;;;;;5075696;28;20191;-90
2022/10/11 03:14:32;;;;;;;19.47;4.07;;;8.70;91.90;;;;;;5074052;28;20195;-90
2022/10/11 03:16:58;;;;;;;21.43;5.17;;;8.70;91.90;;;;;;5074389;28;20183;-90
2022/10/11 03:19:24;;;;;;;24.50;4.67;;;8.60;91.80;;;;;;5074745;28;20180;-90
2022/10/11 03:21:50;;;;;;;22.70;4.00;;;8.50;91.80;;;;;;5074066;28;20190;-90
2022/10/11 03:24:15;;;;;;;22.73;4.80;;;8.50;91.80;;;;;;5073507;28;20290;-90
2022/10/11 03:26:41;;;;;;;26.23;5.03;;;8.50;91.90;;;;;;5073572;28;20266;-90
2022/10/11 03:29:06;;;;;;;18.07;4.60;;;8.50;91.90;;;;;;5073929;28;20179;-90
2022/10/11 03:31:32;;;;;;;19.80;4.30;;;8.40;91.90;;;;;;5074345;28;20310;-91
2022/10/11 03:33:57;;;;;;;23.50;4.60;;;8.30;91.90;;;;;;5074804;28;20578;-90
2022/10/11 03:36:23;;;;;;;16.93;3.70;;;8.30;92.00;;;;;;5073376;28;20175;-90
2022/10/11 03:38:48;;;;;;;20.20;4.40;;;8.30;92.00;;;;;;5073404;28;20183;-90
2022/10/11 03:41:14;;;;;;;23.03;4.67;;;8.30;92.10;;;;;;5073347;28;20262;-90
2022/10/11 03:43:39;;;;;;;20.50;4.67;;;8.30;92.10;;;;;;5073125;28;20337;-90
2022/10/11 03:46:05;;;;;;;21.23;4.53;;;8.30;92.20;;;;;;5073042;28;20253;-90
2022/10/11 03:48:30;;;;;;;28.27;5.47;;;8.30;92.20;;;;;;5074405;28;20168;-90
2022/10/11 03:50:56;;;;;;;23.67;5.10;;;8.30;92.20;;;;;;5073336;28;20179;-90
2022/10/11 03:53:22;;;;;;;21.67;4.50;;;8.30;92.20;;;;;;5073313;28;20175;-90
2022/10/11 03:55:53;;;;;;;22.37;4.70;;;8.30;92.20;;;;;;5072991;28;20203;-91
2022/10/11 03:58:18;;;;;;;24.70;4.80;;;8.30;92.30;;;;;;5073050;28;20197;-90
2022/10/11 04:00:44;;;;;;;11.60;3.90;;;8.30;92.30;;;;;;5072937;28;20183;-90
2022/10/11 04:03:10;;;;;;;11.10;4.00;;;8.20;92.40;;;;;;5072984;28;20237;-90
2022/10/11 04:05:35;;;;;;;26.60;4.80;;;8.20;92.40;;;;;;5073956;28;20250;-90
2022/10/11 04:08:01;;;;;;;20.77;4.47;;;8.20;92.60;;;;;;5073094;28;20175;-90
2022/10/11 04:10:27;;;;;;;24.73;6.27;;;8.20;92.60;;;;;;5072835;28;20175;-90
2022/10/11 04:12:52;;;;;;;16.97;4.77;;;8.20;92.70;;;;;;5072949;28;20175;-91
2022/10/11 04:15:18;;;;;;;12.97;4.53;;;8.20;92.70;;;;;;5072918;28;20290;-90
2022/10/11 04:17:43;;;;;;;23.37;4.70;;;8.10;92.80;;;;;;5073177;28;20209;-90
2022/10/11 04:20:09;;;;;;;24.87;4.47;;;8.10;92.90;;;;;;5072806;28;20210;-90
2022/10/11 04:22:35;;;;;;;18.40;5.00;;;8.10;92.90;;;;;;5072917;28;20183;-90
2022/10/11 04:25:00;;;;;;;24.47;4.40;;;8.10;93.00;;;;;;5072777;28;20207;-90
2022/10/11 04:27:27;;;;;;;19.27;4.43;;;8.10;93.00;;;;;;5073421;28;20668;-90
2022/10/11 04:29:53;;;;;;;19.30;5.57;;;8.20;93.10;;;;;;5072679;28;20171;-90
2022/10/11 04:32:18;;;;;;;18.43;4.30;;;8.10;93.10;;;;;;5072660;28;20665;-91
2022/10/11 04:34:44;;;;;;;25.10;5.03;;;8.20;93.10;;;;;;5072163;28;20202;-90
2022/10/11 04:37:09;;;;;;;23.47;4.67;;;8.20;93.10;;;;;;5073037;28;20262;-90
2022/10/11 04:39:35;;;;;;;16.57;4.67;;;8.20;93.10;;;;;;5072636;28;20217;-90
2022/10/11 04:42:01;;;;;;;16.10;4.13;;;8.20;93.10;;;;;;5072521;28;20263;-90
2022/10/11 04:44:27;;;;;;;17.33;4.40;;;8.20;93.20;;;;;;5072373;28;20345;-90
2022/10/11 04:46:52;;;;;;;15.77;4.37;;;8.20;93.20;;;;;;5072257;28;20175;-90
2022/10/11 04:49:18;;;;;;;26.13;4.70;;;8.10;93.20;;;;;;5072374;28;20171;-90
2022/10/11 04:51:43;;;;;;;17.40;4.40;;;8.20;93.30;;;;;;5072497;28;20248;-90
2022/10/11 04:54:09;;;;;;;25.57;5.30;;;8.10;93.20;;;;;;5072321;28;20665;-90
2022/10/11 04:56:34;;;;;;;26.90;6.27;;;8.10;93.20;;;;;;5073370;28;20187;-90
2022/10/11 04:59:00;;;;;;;26.90;5.60;;;8.10;93.20;;;;;;5072281;28;20184;-90
2022/10/11 05:01:25;;;;;;;16.63;4.33;;;8.10;93.20;;;;;;5072085;28;20594;-90
2022/10/11 05:03:51;;;;;;;17.47;5.03;;;8.20;93.20;;;;;;5073511;28;20195;-90
2022/10/11 05:06:17;;;;;;;24.77;4.57;;;8.10;93.20;;;;;;5072289;28;20211;-91
2022/10/11 05:08:45;;;;;;;21.40;4.47;;;8.10;93.10;;;;;;5072114;28;20198;-90
2022/10/11 05:11:13;;;;;;;12.97;3.90;;;8.00;93.20;;;;;;5072481;28;20707;-90
2022/10/11 05:13:38;;;;;;;24.23;4.30;;;8.00;93.30;;;;;;5073432;28;20221;-90
2022/10/11 05:16:04;;;;;;;21.67;4.90;;;8.10;93.30;;;;;;5072222;28;20183;-91
2022/10/11 05:18:30;;;;;;;29.93;5.10;;;8.10;93.30;;;;;;5072338;28;20179;-90
2022/10/11 05:21:07;;;;;;;32.63;5.30;;;8.10;93.30;;;;;;5072351;28;20182;-90
2022/10/11 05:23:35;;;;;;;21.20;4.97;;;8.20;93.30;;;;;;5072802;28;20587;-88
2022/10/11 05:26:01;;;;;;;30.83;5.67;;;8.10;93.20;;;;;;5072030;28;20207;-90
2022/10/11 05:28:27;;;;;;;23.30;6.30;;;8.20;93.30;;;;;;5072291;28;20587;-92
2022/10/11 05:30:54;;;;;;;19.50;4.23;;;8.20;93.30;;;;;;5072151;28;20175;-91
2022/10/11 05:33:23;;;;;;;19.80;5.07;;;8.30;93.40;;;;;;5072721;28;20228;-88
2022/10/11 05:35:48;;;;;;;20.87;4.90;;;8.40;93.30;;;;;;5073725;28;20183;-92
2022/10/11 05:38:15;;;;;;;22.27;4.93;;;8.40;93.30;;;;;;5071968;28;20637;-91
2022/10/11 05:40:41;;;;;;;19.93;4.47;;;8.30;93.30;;;;;;5071985;28;20179;-91
2022/10/11 05:43:07;;;;;;;22.30;4.50;;;8.40;93.30;;;;;;5073941;28;20178;-91
2022/10/11 05:45:38;;;;;;;22.90;4.83;;;8.40;93.20;;;;;;5071954;28;20231;-92
2022/10/11 05:48:05;;;;;;;13.37;4.00;;;8.40;93.10;;;;;;5074155;28;20171;-91
2022/10/11 05:50:30;;;;;;;17.17;4.47;;;8.30;93.00;;;;;;5075552;28;20201;-88
2022/10/11 05:52:56;;;;;;;24.50;5.17;;;8.30;93.10;;;;;;5075473;28;20172;-91
2022/10/11 05:55:21;;;;;;;26.57;4.40;;;8.30;93.00;;;;;;5076059;28;20216;-89
2022/10/11 05:57:47;;;;;;;19.83;4.40;;;8.20;93.00;;;;;;5075215;28;20175;-89
2022/10/11 06:00:13;;;;;;;29.67;5.10;;;8.20;93.00;;;;;;5075225;28;20274;-90
2022/10/11 06:02:39;;;;;;;21.43;4.87;;;8.20;93.00;;;;;;5075237;28;20232;-89
2022/10/11 06:05:05;;;;;;;17.77;4.23;;;8.20;93.00;;;;;;5074963;28;20218;-90
2022/10/11 06:07:30;;;;;;;20.60;4.33;;;8.20;93.00;;;;;;5076063;28;20179;-90
2022/10/11 06:09:56;;;;;;;16.90;4.43;;;8.10;93.00;;;;;;5074968;28;20171;-90
2022/10/11 06:12:22;;;;;;;19.30;4.67;;;8.20;93.00;;;;;;5074964;28;20171;-90
2022/10/11 06:14:47;;;;;;;15.53;4.60;;;8.10;93.00;;;;;;5075264;28;20256;-90
2022/10/11 06:17:13;;;;;;;26.10;4.40;;;8.20;93.00;;;;;;5074932;28;20175;-90
2022/10/11 06:19:38;;;;;;;16.37;4.10;;;8.20;92.90;;;;;;5074857;28;20274;-90
2022/10/11 06:22:04;;;;;;;23.07;4.23;;;8.20;92.80;;;;;;5074896;28;20184;-92
2022/10/11 06:24:29;;;;;;;20.63;4.30;;;8.20;92.70;;;;;;5074784;28;20289;-90
2022/10/11 06:26:55;;;;;;;26.70;5.60;;;8.20;92.70;;;;;;5074786;28;20194;-91
2022/10/11 06:29:21;;;;;;;18.27;4.17;;;8.20;92.70;;;;;;5074696;28;20229;-91
2022/10/11 06:31:48;;;;;;;18.83;4.70;;;8.20;92.70;;;;;;5074698;28;20221;-90
2022/10/11 06:34:14;;;;;;;18.07;3.97;;;8.30;92.60;;;;;;5074636;28;20202;-90
2022/10/11 06:36:40;;;;;;;21.33;4.40;;;8.30;92.60;;;;;;5075731;28;20565;-90
2022/10/11 06:39:06;;;;;;;18.90;4.67;;;8.30;92.60;;;;;;5074691;28;20175;-90
2022/10/11 06:41:32;;;;;;;15.77;4.43;;;8.30;92.50;;;;;;5074651;28;20229;-90
2022/10/11 06:43:57;;;;;;;22.87;4.37;;;8.40;92.50;;;;;;5074730;28;20195;-91
2022/10/11 06:46:25;;;;;;;20.13;5.73;;;8.40;92.40;;;;;;5074555;28;20294;-91
2022/10/11 06:48:50;;;;;;;20.47;6.10;;;8.50;92.40;;;;;;5075623;28;20186;-90
2022/10/11 06:51:18;;;;;;;21.77;4.13;;;8.50;92.40;;;;;;5074323;28;20179;-92
2022/10/11 06:53:55;;;;;;;22.73;4.30;;;8.60;92.40;;;;;;5074203;28;20249;-90
2022/10/11 06:56:21;;;;;;;14.73;4.23;;;8.60;92.30;;;;;;5075147;28;20509;-91
2022/10/11 06:58:47;;;;;;;19.87;4.13;;;8.60;92.00;;;;;;5078590;28;20167;-90
2022/10/11 07:01:19;;;;;;;30.17;5.23;;;8.60;92.00;;;;;;5075700;28;20218;-90
2022/10/11 07:03:44;;;;;;;21.30;4.20;;;8.70;91.80;;;;;;5078570;28;20191;-91
2022/10/11 07:06:18;;;;;;;20.97;4.10;;;8.70;91.70;;;;;;5074460;28;20203;-90
2022/10/11 07:08:44;;;;;;;25.10;5.17;;;8.70;91.60;;;;;;5075696;28;20217;-91
2022/10/11 07:11:18;;;;;;;23.67;4.53;;;8.70;91.60;;;;;;5074419;28;20175;-90
2022/10/11 07:14:06;;;;;;;19.97;4.63;;;8.80;91.50;;;;;;5074990;28;20530;-90
2022/10/11 07:16:33;;;;;;;18.20;3.83;;;8.80;91.40;;;;;;5075282;28;20675;-90
2022/10/11 07:19:00;;;;;;;22.53;4.27;;;8.90;91.20;;;;;;5073765;28;20179;-91
2022/10/11 07:21:26;;;;;;;19.47;4.63;;;8.90;91.10;;;;;;5074392;28;20183;-89
2022/10/11 07:23:52;;;;;;;28.13;6.27;;;8.90;91.00;;;;;;5073729;28;20700;-91
2022/10/11 07:26:18;;;;;;;14.27;3.30;;;9.00;91.00;;;;;;5074988;28;20198;-92
2022/10/11 07:28:44;;;;;;;16.27;3.60;;;9.20;91.10;;;;;;5073574;28;20175;-91
2022/10/11 07:31:13;;;;;;;22.93;4.10;;;9.20;90.90;;;;;;5073820;28;20179;-89
2022/10/11 07:33:39;;;;;;;24.17;5.57;;;9.20;90.70;;;;;;5074998;28;20642;-87
2022/10/11 07:36:05;;;;;;;18.47;3.93;;;9.40;90.50;;;;;;5073356;28;20191;-88
2022/10/11 07:38:31;;;;;;;21.37;4.37;;;9.40;90.10;;;;;;5073407;28;20641;-89
2022/10/11 07:40:57;;;;;;;17.53;4.13;;;9.50;90.00;;;;;;5073531;28;20176;-89
2022/10/11 07:43:23;;;;;;;17.23;3.70;;;9.50;90.00;;;;;;5073206;28;20550;-89
2022/10/11 07:45:55;;;;;;;16.70;3.80;;;9.50;90.00;;;;;;5073107;28;20677;-89
2022/10/11 07:48:21;;;;;;;23.60;3.80;;;9.50;89.90;;;;;;5073216;28;20167;-89
2022/10/11 07:50:47;;;;;;;16.50;4.70;;;9.60;89.90;;;;;;5073099;28;20186;-89
2022/10/11 07:53:13;;;;;;;17.73;3.70;;;9.70;89.50;;;;;;5074398;28;20600;-90
2022/10/11 07:55:41;;;;;;;18.60;3.87;;;9.80;89.20;;;;;;5073283;28;20199;-89
2022/10/11 07:58:11;;;;;;;16.87;3.77;;;9.70;88.90;;;;;;5073040;28;20598;-90
2022/10/11 08:00:37;;;;;;;17.03;4.10;;;9.70;89.00;;;;;;5074506;28;20180;-89
2022/10/11 08:03:04;;;;;;;11.80;3.20;;;9.70;88.80;;;;;;5074054;28;20171;-89
2022/10/11 08:05:30;;;;;;;21.00;3.67;;;9.80;88.90;;;;;;5073754;28;20247;-89
2022/10/11 08:07:57;;;;;;;17.70;4.60;;;9.80;88.60;;;;;;5072795;28;20182;-89
2022/10/11 08:10:23;;;;;;;18.27;3.53;;;10.00;88.70;;;;;;5072024;28;20225;-89
2022/10/11 08:12:49;;;;;;;19.10;3.83;;;10.10;88.50;;;;;;5072664;28;20183;-88
2022/10/11 08:15:15;;;;;;;14.93;3.27;;;10.20;87.90;;;;;;5072550;28;20612;-87
2022/10/11 08:17:40;;;;;;;23.87;4.93;;;10.30;88.00;;;;;;5072640;28;20210;-89
2022/10/11 08:20:06;;;;;;;11.90;3.20;;;10.30;88.00;;;;;;5072622;28;20218;-88
2022/10/11 08:22:32;;;;;;;13.37;3.43;;;10.50;87.90;;;;;;5073089;28;20207;-88
2022/10/11 08:24:57;;;;;;;16.13;3.40;;;10.50;87.20;;;;;;5072517;28;20253;-90
2022/10/11 08:27:23;;;;;;;13.87;3.47;;;10.60;87.00;;;;;;5072730;28;20175;-89
2022/10/11 08:29:48;;;;;;;19.73;3.70;;;10.70;86.70;;;;;;5072425;28;20548;-91
2022/10/11 08:32:14;;;;;;;14.80;4.50;;;10.80;85.60;;;;;;5072444;28;20179;-89
2022/10/11 08:34:39;;;;;;;14.40;4.10;;;10.90;86.30;;;;;;5072240;28;20195;-89
2022/10/11 08:37:05;;;;;;;17.23;3.73;;;11.00;86.20;;;;;;5072284;28;20183;-89
2022/10/11 08:39:30;;;;;;;13.13;3.53;;;11.10;85.50;;;;;;5072792;28;20182;-89
2022/10/11 08:42:01;;;;;;;19.03;4.87;;;11.30;86.30;;;;;;5072178;28;20211;-88
2022/10/11 08:44:45;;;;;;;19.53;4.50;;;11.30;85.40;;;;;;5071995;28;20294;-89
2022/10/11 08:47:23;;;;;;;15.13;3.80;;;11.40;85.40;;;;;;5072189;28;20254;-89
2022/10/11 08:49:50;;;;;;;18.63;3.93;;;11.40;84.00;;;;;;5072565;28;20690;-88
2022/10/11 08:52:26;;;;;;;18.20;4.03;;;11.50;83.70;;;;;;5072139;28;20183;-88
2022/10/11 08:55:00;;;;;;;16.93;2.93;;;11.60;83.40;;;;;;5071947;28;20207;-89
2022/10/11 08:57:28;;;;;;;15.80;3.87;;;11.70;83.30;;;;;;5072216;28;20174;-91
2022/10/11 09:00:07;;;;;;;17.17;4.67;;;11.80;83.10;;;;;;5072338;28;20635;-89
2022/10/11 09:03:09;;;;;;;17.60;5.00;;;11.80;82.90;;;;;;5073218;28;20657;-87
2022/10/11 09:05:50;;;;;;;12.97;3.03;;;12.10;83.50;;;;;;5071733;28;20219;-87
2022/10/11 09:08:26;;;;;;;16.53;3.33;;;12.20;83.00;;;;;;5073205;28;20261;-88
2022/10/11 09:10:56;;;;;;;19.27;3.80;;;12.10;81.70;;;;;;5072445;28;20175;-89
2022/10/11 09:13:52;;;;;;;22.13;3.50;;;12.10;82.10;;;;;;5071798;28;20179;-89
2022/10/11 09:16:36;;;;;;;18.20;3.93;;;12.20;82.40;;;;;;5071905;28;20189;-88
2022/10/11 09:19:27;;;;;;;22.03;3.93;;;12.10;82.30;;;;;;5072957;28;20175;-89
2022/10/11 09:21:58;;;;;;;19.20;5.23;;;12.10;82.60;;;;;;5075093;28;20178;-90
2022/10/11 09:24:57;;;;;;;14.50;3.23;;;12.20;82.40;;;;;;5077175;28;20191;-88
2022/10/11 09:27:34;;;;;;;15.17;3.80;;;12.20;82.80;;;;;;5075907;28;20171;-88
2022/10/11 09:30:10;;;;;;;19.87;4.93;;;12.20;82.90;;;;;;5075888;28;20179;-89
2022/10/11 09:32:40;;;;;;;16.00;3.20;;;12.20;82.30;;;;;;5076993;28;20256;-87
2022/10/11 09:35:17;;;;;;;20.60;4.07;;;12.20;82.10;;;;;;5076952;28;20195;-89
2022/10/11 09:38:04;;;;;;;20.90;3.57;;;12.30;83.10;;;;;;5075669;28;20190;-88
2022/10/11 09:40:48;;;;;;;20.27;3.63;;;12.30;82.80;;;;;;5076924;28;20170;-89
2022/10/11 09:43:14;;;;;;;20.07;3.53;;;12.30;83.10;;;;;;5076219;28;20176;-89
2022/10/11 09:45:45;;;;;;;18.50;4.20;;;12.30;82.80;;;;;;5075277;28;20225;-89
2022/10/11 09:48:16;;;;;;;26.53;4.43;;;12.30;82.80;;;;;;5075519;28;20167;-88
2022/10/11 09:50:43;;;;;;;9.93;2.83;;;12.30;83.30;;;;;;5075565;28;20182;-90
2022/10/11 09:53:08;;;;;;;22.20;5.73;;;12.40;83.40;;;;;;5076514;28;20179;-91
2022/10/11 09:55:42;;;;;;;18.03;4.43;;;12.30;82.70;;;;;;5076346;28;20202;-92
2022/10/11 09:58:29;;;;;;;15.20;3.47;;;12.30;82.70;;;;;;5075686;28;20172;-91
2022/10/11 10:00:58;;;;;;;11.80;3.60;;;12.40;82.60;;;;;;5076496;28;20163;-91
2022/10/11 10:03:33;;;;;;;17.83;3.57;;;12.50;83.00;;;;;;5076504;28;20213;-91
2022/10/11 10:06:07;;;;;;;21.23;3.90;;;12.60;83.50;;;;;;5075262;28;20211;-92
2022/10/11 10:08:33;;;;;;;14.40;3.87;;;12.60;83.10;;;;;;5075894;28;20171;-92
2022/10/11 10:11:03;;;;;;;12.27;3.90;;;12.70;83.10;;;;;;5076440;28;20189;-93
2022/10/11 10:13:42;;;;;;;23.17;4.73;;;12.60;82.00;;;;;;5074863;28;20171;-91
2022/10/11 10:16:20;;;;;;;19.03;3.60;;;12.80;82.60;;;;;;5075095;28;20213;-91
2022/10/11 10:18:51;;;;;;;17.50;3.60;;;12.80;81.30;;;;;;5075148;28;20171;-92
2022/10/11 10:21:26;;;;;;;17.73;3.17;;;12.80;81.40;;;;;;5075337;28;20233;-91
2022/10/11 10:23:55;;;;;;;21.83;4.83;;;12.90;81.80;;;;;;5074729;28;20209;-91
2022/10/11 10:26:24;;;;;;;18.00;3.13;;;13.00;81.70;;;;;;5074527;28;20293;-90
2022/10/11 10:29:08;;;;;;;20.37;4.27;;;12.80;80.40;;;;;;5074629;28;20556;-91
2022/10/11 10:31:55;;;;;;;18.03;3.73;;;12.90;81.40;;;;;;5075101;28;20202;-90
2022/10/11 10:34:25;;;;;;;18.83;3.23;;;12.90;80.30;;;;;;5074001;28;20198;-91
2022/10/11 10:37:05;;;;;;;12.37;2.90;;;13.10;80.90;;;;;;5075083;28;20206;-90
2022/10/11 10:39:48;;;;;;;11.73;3.17;;;13.10;80.60;;;;;;5074634;28;20189;-90
2022/10/11 10:42:17;;;;;;;14.93;3.43;;;13.10;79.40;;;;;;5074528;28;20217;-92
2022/10/11 10:44:48;;;;;;;14.67;3.47;;;13.10;80.90;;;;;;5074259;28;20211;-91
2022/10/11 10:47:31;;;;;;;20.10;4.23;;;13.10;80.40;;;;;;5075633;28;20164;-89
2022/10/11 10:50:06;;;;;;;13.23;3.03;;;13.20;81.00;;;;;;5074929;28;20209;-90
2022/10/11 10:52:32;;;;;;;21.77;4.30;;;13.10;79.60;;;;;;5075302;28;20585;-90
2022/10/11 10:55:02;;;;;;;17.97;4.07;;;13.20;79.80;;;;;;5075643;28;20183;-91
2022/10/11 10:57:55;;;;;;;21.40;4.40;;;13.30;80.70;;;;;;5075442;28;20166;-90
2022/10/11 11:00:22;;;;;;;15.83;3.93;;;13.40;80.20;;;;;;5075105;28;20176;-92
2022/10/11 11:03:04;;;;;;;15.33;3.30;;;13.50;79.90;;;;;;5074391;28;20179;-91
2022/10/11 11:05:58;;;;;;;21.73;4.33;;;13.50;80.00;;;;;;5075035;28;20218;-88
2022/10/11 11:08:39;;;;;;;17.33;4.13;;;13.60;79.90;;;;;;5075181;28;20156;-89
2022/10/11 11:11:17;;;;;;;20.20;3.97;;;13.50;79.20;;;;;;5075447;28;20156;-88
2022/10/11 11:14:20;;;;;;;25.17;4.60;;;13.60;79.80;;;;;;5073801;28;20287;-88
2022/10/11 11:16:55;;;;;;;17.60;3.93;;;13.80;80.40;;;;;;5078107;28;20672;-89
2022/10/11 11:19:47;;;;;;;19.17;3.57;;;13.80;80.20;;;;;;5076841;28;20173;-91
2022/10/11 11:22:12;;;;;;;17.27;3.87;;;13.70;79.70;;;;;;5075419;28;20164;-91
2022/10/11 11:24:49;;;;;;;16.60;3.57;;;13.70;80.60;;;;;;5074969;28;20195;-91
2022/10/11 11:27:26;;;;;;;18.33;4.27;;;13.50;80.10;;;;;;5074453;28;20225;-88
2022/10/11 11:30:05;;;;;;;14.83;3.13;;;13.60;80.70;;;;;;5074168;28;20206;-89
2022/10/11 11:32:39;;;;;;;21.57;3.80;;;13.50;80.20;;;;;;5073993;28;20262;-89
2022/10/11 11:35:25;;;;;;;15.00;3.17;;;13.50;80.70;;;;;;5073379;28;20264;-89
2022/10/11 11:37:57;;;;;;;13.93;3.90;;;13.60;80.70;;;;;;5073650;28;20171;-89
2022/10/11 11:40:45;;;;;;;15.83;3.40;;;13.50;80.20;;;;;;5073278;28;20222;-89
2022/10/11 11:43:38;;;;;;;16.10;3.43;;;13.50;80.60;;;;;;5073203;28;20228;-89
2022/10/11 11:46:11;;;;;;;21.93;3.33;;;13.60;80.50;;;;;;5072822;28;20230;-89
2022/10/11 11:48:38;;;;;;;13.23;3.70;;;13.60;79.40;;;;;;5073213;28;20176;-89
2022/10/11 11:51:18;;;;;;;16.70;3.13;;;13.70;79.20;;;;;;5073165;28;20270;-88
2022/10/11 11:54:01;;;;;;;15.07;3.17;;;13.70;78.20;;;;;;5073163;28;20210;-88
2022/10/11 11:56:55;;;;;;;14.10;3.47;;;13.70;77.40;;;;;;5075158;28;20152;-87
2022/10/11 11:59:33;;;;;;;17.13;3.30;;;13.80;78.00;;;;;;5073909;28;20626;-86
2022/10/11 12:02:20;;;;;;;10.90;3.03;;;13.80;78.10;;;;;;5073003;28;20634;-86
2022/10/11 12:04:48;;;;;;;12.53;2.63;;;14.00;78.30;;;;;;5074091;28;20219;-86
2022/10/11 12:07:21;;;;;;;23.43;3.30;;;14.20;77.60;;;;;;5072900;28;20175;-86
2022/10/11 12:09:50;;;;;;;18.13;3.37;;;14.50;77.70;;;;;;5074018;28;20238;-86
2022/10/11 12:12:35;;;;;;;18.30;3.87;;;14.90;76.90;;;;;;5074067;28;20182;-86
2022/10/11 12:15:18;;;;;;;18.27;3.17;;;14.80;75.70;;;;;;5074106;28;20241;-86
2022/10/11 12:17:56;;;;;;;14.50;2.80;;;15.20;76.80;;;;;;5073032;28;20261;-86
2022/10/11 12:20:25;;;;;;;14.98;2.50;;;15.20;75.70;;;;;;5072865;28;20267;-86
2022/10/11 12:23:29;;;;;;;10.95;2.95;;;15.20;74.90;;;;;;5072565;28;20175;-86
2022/10/11 12:26:34;;;;;;;14.15;3.08;;;15.10;74.20;;;;;;5073536;28;20202;-86
2022/10/11 12:29:18;;;;;;;14.90;2.53;;;15.30;74.00;;;;;;5073859;28;20171;-88
2022/10/11 12:31:46;;;;;;;14.40;2.78;;;15.40;71.80;;;;;;5074283;28;20254;-90
2022/10/11 12:34:20;;;;;;;14.15;2.95;;;15.20;72.70;;;;;;5072578;28;20219;-85
2022/10/11 12:36:48;;;;;;;16.05;3.22;;;15.40;73.70;;;;;;5073509;28;20232;-87
2022/10/11 12:39:19;;;;;;;17.17;2.67;;;15.50;71.50;;;;;;5072943;28;20175;-87
2022/10/11 12:41:48;;;;;;;15.68;3.05;;;15.70;72.50;;;;;;5074149;28;20205;-87
2022/10/11 12:44:17;;;;;;;11.93;4.07;;;15.60;72.20;;;;;;5072866;28;20191;-86
2022/10/11 12:47:24;;;;;;;11.00;3.13;;;15.70;72.60;;;;;;5072613;28;20199;-87
2022/10/11 12:50:05;;;;;;;11.32;2.47;;;15.80;72.50;;;;;;5073690;28;20160;-87
2022/10/11 12:52:40;;;;;;;11.10;2.60;;;15.70;70.10;;;;;;5072210;28;20171;-86
2022/10/11 12:55:08;;;;;;;11.80;2.88;;;16.10;72.30;;;;;;5073553;28;20277;-86
2022/10/11 12:57:43;;;;;;;14.82;2.95;;;16.20;70.40;;;;;;5071974;28;20175;-86
2022/10/11 13:00:30;;;;;;;14.45;2.72;;;15.90;70.50;;;;;;5072448;28;20197;-86
2022/10/11 13:03:05;;;;;;;15.00;2.95;;;15.70;69.30;;;;;;5071940;28;20274;-86
2022/10/11 13:05:46;;;;;;;11.57;2.67;;;15.30;72.60;;;;;;5071743;28;20700;-86